Time;durP1;ratioP1;P1;durP2;ratioP2;P2;SDS_P1;SDS_P2;PMS_P1;PMS_P2;Temp;Humidity;BMP_temperature;BMP_pressure;BME280_temperature;BME280_humidity;BME280_pressure;Samples;Min_cycle;Max_cycle;Signal;HPM_P1;HPM_P2
2023/10/31 00:00:47;;;;;;;0.98;0.98;;;12.20;99.90;;;;;;4991344;28;20208;-75
2023/10/31 00:03:14;;;;;;;1.50;1.40;;;12.20;99.90;;;;;;4987393;28;20248;-75
2023/10/31 00:05:41;;;;;;;1.40;1.30;;;12.20;99.90;;;;;;4989857;28;20196;-77
2023/10/31 00:08:10;;;;;;;1.10;1.10;;;12.20;99.90;;;;;;4988570;28;20312;-77
2023/10/31 00:10:37;;;;;;;1.10;1.10;;;12.20;99.90;;;;;;4985420;28;20232;-76
2023/10/31 00:13:04;;;;;;;1.05;1.05;;;12.20;99.90;;;;;;4987400;28;20898;-77
2023/10/31 00:15:31;;;;;;;1.20;1.20;;;12.20;99.90;;;;;;4991479;28;20288;-76
2023/10/31 00:17:58;;;;;;;1.10;1.10;;;12.20;99.90;;;;;;4987409;28;20742;-76
2023/10/31 00:20:25;;;;;;;1.40;1.30;;;12.30;99.90;;;;;;4983561;28;20249;-76
2023/10/31 00:22:52;;;;;;;0.90;0.90;;;12.20;99.90;;;;;;4987412;28;20225;-76
2023/10/31 00:25:21;;;;;;;0.90;0.90;;;12.20;99.90;;;;;;4986998;28;20208;-76
2023/10/31 00:27:48;;;;;;;19.98;2.40;;;12.20;99.90;;;;;;4987098;28;20269;-76
2023/10/31 00:30:15;;;;;;;12.25;2.28;;;12.20;99.90;;;;;;4984995;28;20213;-76
2023/10/31 00:32:43;;;;;;;0.98;0.98;;;12.20;99.90;;;;;;4988410;28;20867;-76
2023/10/31 00:35:12;;;;;;;1.00;1.00;;;12.20;99.90;;;;;;4984928;28;20200;-76
2023/10/31 00:37:40;;;;;;;1.05;1.05;;;12.20;99.90;;;;;;4985866;28;20296;-76
2023/10/31 00:40:10;;;;;;;1.08;1.08;;;12.20;99.90;;;;;;4985906;28;20197;-76
2023/10/31 00:42:41;;;;;;;1.00;1.00;;;12.20;99.90;;;;;;4987927;28;20300;-76
2023/10/31 00:45:09;;;;;;;5.28;1.50;;;12.30;99.90;;;;;;4984582;28;20201;-77
2023/10/31 00:47:36;;;;;;;1.20;1.20;;;12.30;99.90;;;;;;4985860;28;20213;-76
2023/10/31 00:50:04;;;;;;;1.40;1.30;;;12.20;99.90;;;;;;4983597;28;20201;-76
2023/10/31 00:52:31;;;;;;;1.35;1.35;;;12.20;99.90;;;;;;4982842;28;20817;-76
2023/10/31 00:54:58;;;;;;;0.80;0.80;;;12.20;99.90;;;;;;4981401;28;20268;-76
2023/10/31 00:57:25;;;;;;;1.10;1.10;;;12.30;99.90;;;;;;4979323;28;20201;-76
2023/10/31 00:59:53;;;;;;;1.13;1.13;;;12.30;99.90;;;;;;4983756;28;20210;-75
2023/10/31 01:02:21;;;;;;;1.30;1.30;;;12.30;99.90;;;;;;4982878;28;20717;-76
2023/10/31 01:04:48;;;;;;;1.20;1.20;;;12.20;99.90;;;;;;4978267;28;20265;-76
2023/10/31 01:07:16;;;;;;;2.03;1.85;;;12.20;99.90;;;;;;4979469;28;20209;-76
2023/10/31 01:09:44;;;;;;;5.50;1.60;;;12.20;99.90;;;;;;4978661;28;20197;-76
2023/10/31 01:12:11;;;;;;;1.30;1.30;;;12.30;99.90;;;;;;4981765;28;20694;-76
2023/10/31 01:14:38;;;;;;;5.40;1.90;;;12.20;99.90;;;;;;4980546;28;20741;-77
2023/10/31 01:17:08;;;;;;;1.35;1.27;;;12.20;99.90;;;;;;4984967;28;20851;-76
2023/10/31 01:19:35;;;;;;;26.55;2.30;;;12.20;99.90;;;;;;4982517;28;20324;-76
2023/10/31 01:22:02;;;;;;;2.25;1.50;;;12.20;99.90;;;;;;4977945;28;20205;-76
2023/10/31 01:24:29;;;;;;;1.95;1.80;;;12.10;99.90;;;;;;4979022;28;20761;-76
2023/10/31 01:26:56;;;;;;;1.48;1.40;;;12.10;99.90;;;;;;4981312;28;20260;-76
2023/10/31 01:29:23;;;;;;;1.30;1.30;;;12.10;99.90;;;;;;4982835;28;20296;-76
2023/10/31 01:31:50;;;;;;;1.20;1.20;;;12.10;99.90;;;;;;4980203;28;20213;-75
2023/10/31 01:34:18;;;;;;;1.33;1.33;;;12.10;99.90;;;;;;4981252;28;20271;-75
2023/10/31 01:36:45;;;;;;;1.10;1.10;;;12.20;99.90;;;;;;4982932;28;20295;-75
2023/10/31 01:39:13;;;;;;;1.55;1.50;;;12.20;99.90;;;;;;4982251;28;20262;-75
2023/10/31 01:41:42;;;;;;;1.45;1.40;;;12.20;99.90;;;;;;4983054;28;20279;-76
2023/10/31 01:44:09;;;;;;;1.50;1.42;;;12.20;99.90;;;;;;4983603;28;20221;-76
2023/10/31 01:46:36;;;;;;;1.75;1.65;;;12.30;99.90;;;;;;4978895;28;20873;-76
2023/10/31 01:49:03;;;;;;;1.30;1.30;;;12.30;99.90;;;;;;4979458;28;20626;-76
2023/10/31 01:51:32;;;;;;;1.90;1.80;;;12.40;99.90;;;;;;4979870;28;20305;-76
2023/10/31 01:53:59;;;;;;;1.63;1.52;;;12.40;99.90;;;;;;4963817;28;20312;-76
2023/10/31 01:56:27;;;;;;;4.15;2.30;;;12.30;99.90;;;;;;4978154;28;20205;-76
2023/10/31 01:58:54;;;;;;;3.83;2.30;;;12.50;99.90;;;;;;4981627;28;20283;-76
2023/10/31 02:01:22;;;;;;;3.22;1.83;;;13.00;99.90;;;;;;4975797;28;20209;-76
2023/10/31 02:03:49;;;;;;;1.67;1.55;;;13.40;99.90;;;;;;4982028;28;20335;-79
2023/10/31 02:06:16;;;;;;;2.28;2.08;;;13.50;99.90;;;;;;4982623;28;20205;-76
2023/10/31 02:08:45;;;;;;;2.33;1.70;;;13.40;99.90;;;;;;4982602;28;20252;-76
2023/10/31 02:11:12;;;;;;;1.33;1.30;;;13.20;99.90;;;;;;4976729;28;20284;-75
2023/10/31 02:13:39;;;;;;;1.55;1.45;;;13.10;99.90;;;;;;4980558;28;20275;-75
2023/10/31 02:16:07;;;;;;;2.17;1.58;;;12.90;99.90;;;;;;4980183;28;20252;-75
2023/10/31 02:18:34;;;;;;;1.73;1.63;;;13.00;99.90;;;;;;4979567;28;21270;-76
2023/10/31 02:21:01;;;;;;;2.25;1.50;;;13.00;99.90;;;;;;4978364;28;20208;-75
2023/10/31 02:23:30;;;;;;;1.80;1.70;;;13.00;99.90;;;;;;4979581;28;20310;-76
2023/10/31 02:25:57;;;;;;;1.40;1.30;;;13.00;99.90;;;;;;4979325;28;20206;-76
2023/10/31 02:28:27;;;;;;;1.45;1.35;;;13.00;99.90;;;;;;4979934;28;20280;-75
2023/10/31 02:30:54;;;;;;;1.45;1.35;;;13.00;99.90;;;;;;4977879;28;20212;-76
2023/10/31 02:33:21;;;;;;;1.08;1.05;;;13.00;99.90;;;;;;4976796;28;20288;-77
2023/10/31 02:35:48;;;;;;;1.15;1.15;;;13.00;99.90;;;;;;4979684;28;20200;-76
2023/10/31 02:38:16;;;;;;;2.17;1.27;;;12.90;99.90;;;;;;4976279;28;20209;-76
2023/10/31 02:40:46;;;;;;;5.22;1.70;;;12.90;99.90;;;;;;4980216;28;20200;-76
2023/10/31 02:43:13;;;;;;;1.60;1.50;;;12.70;99.90;;;;;;4972950;28;20354;-76
2023/10/31 02:45:40;;;;;;;1.48;1.40;;;12.60;99.90;;;;;;4974030;28;20267;-76
2023/10/31 02:48:08;;;;;;;1.27;1.17;;;12.50;99.90;;;;;;4976724;28;20205;-76
2023/10/31 02:50:35;;;;;;;1.30;1.30;;;12.50;99.90;;;;;;4975369;28;20464;-76
2023/10/31 02:53:03;;;;;;;45.00;3.40;;;12.60;99.90;;;;;;4975833;28;20240;-76
2023/10/31 02:55:30;;;;;;;1.67;1.50;;;12.70;99.90;;;;;;4976881;28;20619;-76
2023/10/31 02:57:59;;;;;;;45.03;3.13;;;12.50;99.90;;;;;;4977263;28;20733;-77
2023/10/31 03:00:26;;;;;;;10.23;2.30;;;12.40;99.90;;;;;;4978350;28;20200;-76
2023/10/31 03:02:53;;;;;;;5.68;1.85;;;12.30;99.90;;;;;;4977461;28;20285;-76
2023/10/31 03:05:20;;;;;;;2.80;1.58;;;12.20;99.90;;;;;;4979488;28;20220;-76
2023/10/31 03:07:48;;;;;;;1.65;1.55;;;12.10;99.90;;;;;;4976903;28;20212;-75
2023/10/31 03:10:15;;;;;;;1.80;1.70;;;12.10;99.90;;;;;;4975999;28;20198;-75
2023/10/31 03:12:42;;;;;;;25.77;3.47;;;12.10;99.90;;;;;;4977601;28;20716;-76
2023/10/31 03:15:11;;;;;;;1.83;1.73;;;12.10;99.90;;;;;;4978867;28;20284;-75
2023/10/31 03:17:38;;;;;;;1.45;1.35;;;12.00;99.90;;;;;;4988319;28;20219;-76
2023/10/31 03:20:07;;;;;;;1.33;1.23;;;12.00;99.90;;;;;;4975966;28;20275;-76
2023/10/31 03:22:34;;;;;;;2.03;1.85;;;12.00;99.90;;;;;;4977685;28;20205;-75
2023/10/31 03:25:01;;;;;;;2.10;2.00;;;12.00;99.90;;;;;;4977934;28;20307;-76
2023/10/31 03:27:28;;;;;;;2.35;2.25;;;12.00;99.90;;;;;;4977751;28;20361;-75
2023/10/31 03:29:55;;;;;;;4.93;2.42;;;12.00;99.90;;;;;;4975995;28;20720;-76
2023/10/31 03:32:23;;;;;;;12.00;2.70;;;12.00;99.90;;;;;;4977178;28;20651;-76
2023/10/31 03:34:50;;;;;;;4.63;2.50;;;12.00;99.90;;;;;;4977970;28;20291;-76
2023/10/31 03:37:17;;;;;;;2.67;2.05;;;12.00;99.90;;;;;;4974466;28;20205;-76
2023/10/31 03:39:44;;;;;;;2.22;2.13;;;11.90;99.90;;;;;;4979987;28;20208;-76
2023/10/31 03:42:11;;;;;;;2.50;2.30;;;11.90;99.90;;;;;;4979561;28;20209;-76
2023/10/31 03:44:38;;;;;;;2.30;2.20;;;12.00;99.90;;;;;;4976072;28;20228;-76
2023/10/31 03:47:06;;;;;;;2.10;2.00;;;11.90;99.90;;;;;;4975697;28;20260;-75
2023/10/31 03:49:34;;;;;;;15.23;2.83;;;11.90;99.90;;;;;;4981813;28;20288;-75
2023/10/31 03:52:01;;;;;;;14.70;3.13;;;11.90;99.90;;;;;;4977946;28;20254;-76
2023/10/31 03:54:28;;;;;;;2.22;2.13;;;11.90;99.90;;;;;;4978376;28;20217;-76
2023/10/31 03:56:55;;;;;;;3.03;2.90;;;11.90;99.90;;;;;;4976632;28;20618;-76
2023/10/31 03:59:22;;;;;;;2.95;2.75;;;11.90;99.90;;;;;;4978880;28;20256;-76
2023/10/31 04:01:49;;;;;;;70.47;5.28;;;11.90;99.90;;;;;;4977425;28;20213;-76
2023/10/31 04:04:17;;;;;;;2.80;2.65;;;11.90;99.90;;;;;;4979198;28;20275;-76
2023/10/31 04:06:45;;;;;;;3.45;3.25;;;11.90;99.90;;;;;;4977630;28;20202;-77
2023/10/31 04:09:13;;;;;;;23.10;4.25;;;11.90;99.90;;;;;;4977694;28;20259;-76
2023/10/31 04:11:41;;;;;;;3.55;3.35;;;11.90;99.90;;;;;;4975901;28;20201;-77
2023/10/31 04:14:08;;;;;;;3.55;3.35;;;11.80;99.90;;;;;;4978741;28;20229;-76
2023/10/31 04:16:40;;;;;;;145.60;10.85;;;11.80;99.90;;;;;;4979341;28;20288;-77
2023/10/31 04:19:07;;;;;;;147.98;9.48;;;11.80;99.90;;;;;;4980120;28;20197;-77
2023/10/31 04:21:34;;;;;;;8.75;4.05;;;11.80;99.90;;;;;;4974473;28;20496;-77
2023/10/31 04:24:03;;;;;;;13.55;3.95;;;11.80;99.90;;;;;;4979488;28;20686;-77
2023/10/31 04:26:30;;;;;;;3.50;3.30;;;11.70;99.90;;;;;;4980621;28;20213;-76
2023/10/31 04:28:57;;;;;;;5.55;4.40;;;11.70;99.90;;;;;;4979339;28;20314;-76
2023/10/31 04:31:24;;;;;;;4.18;3.88;;;11.70;99.90;;;;;;4980069;28;20206;-76
2023/10/31 04:33:51;;;;;;;25.48;5.35;;;11.70;99.90;;;;;;4981900;28;20812;-76
2023/10/31 04:36:18;;;;;;;11.07;4.82;;;11.80;99.90;;;;;;4982700;28;20237;-77
2023/10/31 04:38:45;;;;;;;4.55;3.88;;;11.80;99.90;;;;;;4977728;28;20922;-76
2023/10/31 04:41:13;;;;;;;30.60;5.75;;;11.80;99.90;;;;;;4978137;28;20344;-76
2023/10/31 04:43:41;;;;;;;14.95;4.60;;;11.80;99.90;;;;;;4982761;28;20268;-76
2023/10/31 04:46:08;;;;;;;24.40;6.35;;;11.80;99.90;;;;;;4982924;28;20592;-75
2023/10/31 04:48:35;;;;;;;10.75;4.25;;;11.70;99.90;;;;;;4994655;28;20197;-75
2023/10/31 04:51:03;;;;;;;3.97;3.70;;;11.80;99.90;;;;;;4983327;28;20287;-75
2023/10/31 04:53:32;;;;;;;3.65;3.35;;;11.70;99.90;;;;;;4966535;28;20230;-76
2023/10/31 04:55:59;;;;;;;3.53;3.33;;;11.70;99.90;;;;;;4979402;28;20285;-76
2023/10/31 04:58:27;;;;;;;55.50;6.40;;;11.70;99.90;;;;;;4982033;28;20296;-77
2023/10/31 05:00:55;;;;;;;12.57;5.30;;;11.80;99.90;;;;;;4980323;28;20267;-75
2023/10/31 05:03:22;;;;;;;4.50;4.10;;;11.80;99.90;;;;;;4979586;28;20221;-76
2023/10/31 05:05:49;;;;;;;4.78;4.38;;;11.80;99.90;;;;;;4981424;28;20216;-75
2023/10/31 05:08:14;;;;;;;4.05;3.75;;;11.80;99.90;;;;;;4982185;28;20260;-75
2023/10/31 05:10:42;;;;;;;4.40;4.10;;;11.80;99.90;;;;;;4998553;28;20201;-75
2023/10/31 05:13:09;;;;;;;4.57;4.18;;;11.80;99.90;;;;;;4962751;28;20233;-77
2023/10/31 05:15:38;;;;;;;4.95;4.55;;;11.80;99.90;;;;;;4979059;28;20265;-76
2023/10/31 05:18:05;;;;;;;3.30;3.10;;;11.70;99.90;;;;;;4979098;28;20645;-76
2023/10/31 05:20:33;;;;;;;2.92;2.72;;;11.70;99.90;;;;;;4976497;28;20279;-76
2023/10/31 05:23:00;;;;;;;2.28;2.17;;;11.70;99.90;;;;;;4980287;28;20267;-77
2023/10/31 05:25:27;;;;;;;2.35;2.25;;;11.70;99.90;;;;;;4982819;28;20268;-76
2023/10/31 05:27:55;;;;;;;2.17;2.08;;;11.70;99.90;;;;;;4979476;28;20268;-76
2023/10/31 05:30:22;;;;;;;2.50;2.40;;;11.60;99.90;;;;;;4975270;28;20723;-76
2023/10/31 05:32:51;;;;;;;2.85;2.42;;;11.70;99.90;;;;;;4976411;28;20276;-75
2023/10/31 05:35:18;;;;;;;2.30;2.20;;;11.60;99.90;;;;;;4978427;28;20202;-76
2023/10/31 05:37:47;;;;;;;2.40;2.30;;;11.60;99.90;;;;;;4976725;28;20233;-76
2023/10/31 05:40:15;;;;;;;2.33;2.22;;;11.60;99.90;;;;;;4976412;28;20764;-76
2023/10/31 05:42:42;;;;;;;5.30;2.58;;;11.60;99.90;;;;;;4981419;28;20212;-76
2023/10/31 05:45:10;;;;;;;2.65;2.55;;;11.60;99.90;;;;;;4980805;28;20271;-76
2023/10/31 05:47:37;;;;;;;2.13;1.95;;;11.60;99.90;;;;;;4978670;28;20268;-76
2023/10/31 05:50:07;;;;;;;2.20;2.10;;;11.60;99.90;;;;;;4978514;28;20208;-76
2023/10/31 05:52:34;;;;;;;3.28;3.08;;;11.60;99.90;;;;;;4980767;28;20201;-76
2023/10/31 05:55:01;;;;;;;2.15;2.05;;;11.60;99.90;;;;;;4976153;28;20669;-76
2023/10/31 05:57:28;;;;;;;2.10;2.00;;;11.50;99.90;;;;;;4977193;28;20209;-76
2023/10/31 05:59:55;;;;;;;1.95;1.85;;;11.50;99.90;;;;;;4981089;28;20800;-76
2023/10/31 06:02:22;;;;;;;1.70;1.60;;;11.40;99.90;;;;;;4980958;28;20227;-76
2023/10/31 06:04:49;;;;;;;1.50;1.40;;;11.40;99.90;;;;;;4977616;28;20239;-76
2023/10/31 06:07:18;;;;;;;1.70;1.60;;;11.40;99.90;;;;;;4981337;28;20659;-76
2023/10/31 06:09:45;;;;;;;1.20;1.10;;;11.40;99.90;;;;;;4978302;28;20209;-76
2023/10/31 06:12:12;;;;;;;1.63;1.52;;;11.40;99.90;;;;;;4981319;28;20428;-76
2023/10/31 06:14:39;;;;;;;1.60;1.50;;;11.40;99.90;;;;;;4978559;28;20289;-76
2023/10/31 06:17:06;;;;;;;1.05;1.05;;;11.40;99.90;;;;;;4979016;28;20340;-76
2023/10/31 06:19:35;;;;;;;2.58;1.40;;;11.40;99.90;;;;;;4979891;28;20296;-76
2023/10/31 06:22:02;;;;;;;1.52;1.42;;;11.40;99.90;;;;;;4977785;28;20201;-76
2023/10/31 06:24:31;;;;;;;1.90;1.80;;;11.40;99.90;;;;;;4982134;28;20220;-76
2023/10/31 06:26:58;;;;;;;1.65;1.55;;;11.40;99.90;;;;;;4980171;28;21231;-77
2023/10/31 06:29:25;;;;;;;1.33;1.30;;;11.40;99.90;;;;;;4981571;28;20210;-76
2023/10/31 06:31:52;;;;;;;1.85;1.75;;;11.40;99.90;;;;;;4979062;28;20202;-77
2023/10/31 06:34:19;;;;;;;4.25;1.95;;;11.40;99.90;;;;;;4982500;28;20316;-76
2023/10/31 06:36:46;;;;;;;1.70;1.60;;;11.40;99.90;;;;;;4978597;28;20205;-76
2023/10/31 06:39:14;;;;;;;1.52;1.42;;;11.40;99.90;;;;;;4980405;28;20205;-77
2023/10/31 06:41:42;;;;;;;1.52;1.42;;;11.40;99.90;;;;;;4981574;28;20292;-74
2023/10/31 06:44:10;;;;;;;1.38;1.33;;;11.40;99.90;;;;;;4979509;28;20405;-76
2023/10/31 06:46:37;;;;;;;1.40;1.30;;;11.30;99.90;;;;;;4976083;28;20208;-76
2023/10/31 06:49:04;;;;;;;1.35;1.25;;;11.30;99.90;;;;;;4973428;28;20217;-78
2023/10/31 06:51:31;;;;;;;1.50;1.50;;;11.20;99.90;;;;;;4957064;28;20205;-77
2023/10/31 06:53:58;;;;;;;1.20;1.20;;;11.20;99.90;;;;;;4977307;28;20291;-76
2023/10/31 06:56:28;;;;;;;1.50;1.40;;;11.10;99.90;;;;;;4980722;28;20205;-77
2023/10/31 06:58:57;;;;;;;1.40;1.40;;;11.10;99.90;;;;;;4980474;28;20675;-77
2023/10/31 07:01:24;;;;;;;1.65;1.55;;;11.00;99.90;;;;;;4976296;28;20280;-76
2023/10/31 07:03:51;;;;;;;1.50;1.40;;;11.00;99.90;;;;;;4976761;28;20306;-75
2023/10/31 07:06:18;;;;;;;1.80;1.70;;;11.00;99.90;;;;;;4977650;28;20217;-75
2023/10/31 07:08:45;;;;;;;1.60;1.50;;;10.90;99.90;;;;;;4979496;28;20205;-76
2023/10/31 07:11:12;;;;;;;1.50;1.40;;;10.90;99.90;;;;;;4979211;28;20205;-75
2023/10/31 07:13:40;;;;;;;1.55;1.40;;;10.80;99.90;;;;;;4980618;28;20224;-76
2023/10/31 07:16:09;;;;;;;1.20;1.20;;;10.90;99.90;;;;;;4976697;28;20264;-76
2023/10/31 07:18:36;;;;;;;1.60;1.25;;;10.90;99.90;;;;;;4975841;28;20726;-76
2023/10/31 07:21:04;;;;;;;1.48;1.38;;;10.80;99.90;;;;;;4976220;28;20586;-76
2023/10/31 07:23:31;;;;;;;1.25;1.23;;;10.80;99.90;;;;;;4976942;28;20652;-75
2023/10/31 07:25:58;;;;;;;1.38;1.27;;;10.70;99.90;;;;;;4977956;28;20629;-76
2023/10/31 07:28:25;;;;;;;1.35;1.30;;;10.60;99.90;;;;;;4977968;28;20200;-76
2023/10/31 07:30:53;;;;;;;1.40;1.30;;;10.50;99.90;;;;;;4978851;28;20668;-76
2023/10/31 07:33:21;;;;;;;1.45;1.35;;;10.50;99.90;;;;;;4980173;28;20227;-77
2023/10/31 07:35:48;;;;;;;2.35;1.17;;;10.40;99.90;;;;;;4978573;28;20197;-75
2023/10/31 07:38:15;;;;;;;1.10;1.10;;;10.30;99.90;;;;;;4977039;28;20240;-76
2023/10/31 07:40:43;;;;;;;1.98;1.73;;;10.20;99.90;;;;;;4975588;28;20209;-75
2023/10/31 07:43:10;;;;;;;1.20;1.20;;;10.20;99.90;;;;;;4973701;28;20318;-76
2023/10/31 07:45:37;;;;;;;1.15;1.15;;;10.10;99.90;;;;;;4976598;28;20556;-75
2023/10/31 07:48:04;;;;;;;1.38;1.38;;;10.10;99.90;;;;;;4975678;28;20250;-76
2023/10/31 07:50:32;;;;;;;1.35;1.35;;;10.00;99.90;;;;;;4977068;28;20205;-76
2023/10/31 07:53:00;;;;;;;1.73;1.63;;;10.00;99.90;;;;;;4969896;28;20228;-77
2023/10/31 07:55:28;;;;;;;1.15;1.15;;;9.90;99.90;;;;;;4972143;28;20293;-76
2023/10/31 07:57:55;;;;;;;0.95;0.95;;;10.00;99.90;;;;;;4973272;28;20231;-77
2023/10/31 08:00:22;;;;;;;1.30;1.30;;;10.10;99.90;;;;;;4972892;28;20290;-76
2023/10/31 08:02:49;;;;;;;1.60;1.50;;;10.10;99.90;;;;;;4972842;28;20221;-77
2023/10/31 08:05:16;;;;;;;1.48;1.40;;;10.00;99.90;;;;;;4978784;28;20229;-75
2023/10/31 08:07:47;;;;;;;1.50;1.40;;;9.90;99.90;;;;;;4975697;28;20196;-76
2023/10/31 08:10:14;;;;;;;1.15;1.15;;;9.80;99.90;;;;;;4979712;28;20201;-76
2023/10/31 08:12:41;;;;;;;1.70;1.30;;;9.80;99.90;;;;;;4977192;28;20197;-76
2023/10/31 08:15:09;;;;;;;1.40;1.30;;;9.80;99.90;;;;;;4977520;28;20224;-75
2023/10/31 08:17:36;;;;;;;1.42;1.42;;;9.70;99.90;;;;;;4979515;28;20201;-76
2023/10/31 08:20:04;;;;;;;1.33;1.33;;;9.70;99.90;;;;;;4974680;28;20636;-76
2023/10/31 08:22:31;;;;;;;1.30;1.20;;;9.70;99.90;;;;;;4977774;28;20355;-75
2023/10/31 08:25:00;;;;;;;1.55;1.45;;;9.60;99.90;;;;;;4976573;28;20245;-75
2023/10/31 08:27:27;;;;;;;1.67;1.58;;;9.60;99.90;;;;;;4980401;28;20201;-75
2023/10/31 08:29:54;;;;;;;1.55;1.45;;;9.60;99.90;;;;;;4980809;28;20268;-75
2023/10/31 08:32:22;;;;;;;2.55;1.67;;;9.60;99.90;;;;;;4982513;28;20264;-76
2023/10/31 08:34:49;;;;;;;1.90;1.80;;;9.60;99.90;;;;;;4977764;28;20730;-75
2023/10/31 08:37:16;;;;;;;1.80;1.70;;;9.60;99.90;;;;;;4981383;28;20201;-75
2023/10/31 08:39:44;;;;;;;1.73;1.63;;;9.50;99.90;;;;;;4973592;28;20213;-75
2023/10/31 08:42:12;;;;;;;1.70;1.60;;;9.50;99.90;;;;;;4976978;28;20215;-75
2023/10/31 08:44:41;;;;;;;1.30;1.30;;;9.50;99.90;;;;;;4978357;28;20797;-75
2023/10/31 08:47:09;;;;;;;1.88;1.77;;;9.50;99.90;;;;;;4980248;28;20197;-75
2023/10/31 08:49:36;;;;;;;1.83;1.73;;;9.50;99.90;;;;;;4979675;28;20263;-75
2023/10/31 08:52:04;;;;;;;1.58;1.48;;;9.40;99.90;;;;;;4978655;28;20237;-76
2023/10/31 08:54:31;;;;;;;1.50;1.50;;;9.40;99.90;;;;;;4978017;28;20268;-76
2023/10/31 08:56:58;;;;;;;1.45;1.40;;;9.50;99.90;;;;;;4974985;28;20232;-75
2023/10/31 08:59:27;;;;;;;1.50;1.40;;;9.50;99.90;;;;;;4979606;28;20569;-75
2023/10/31 09:01:54;;;;;;;1.58;1.55;;;9.60;99.90;;;;;;4979029;28;20205;-76
2023/10/31 09:04:21;;;;;;;1.42;1.40;;;9.50;99.90;;;;;;4978356;28;20977;-77
2023/10/31 09:06:49;;;;;;;1.40;1.40;;;9.40;99.90;;;;;;4976976;28;20241;-75
2023/10/31 09:09:16;;;;;;;1.42;1.33;;;9.40;99.90;;;;;;4975148;28;20694;-76
2023/10/31 09:11:43;;;;;;;2.45;1.30;;;9.40;99.90;;;;;;4976869;28;20209;-75
2023/10/31 09:14:10;;;;;;;2.17;2.08;;;9.30;99.90;;;;;;4979120;28;20227;-75
2023/10/31 09:16:39;;;;;;;2.40;2.30;;;9.30;99.90;;;;;;4978233;28;20215;-76
2023/10/31 09:19:06;;;;;;;2.10;1.98;;;9.30;99.90;;;;;;4968222;28;20749;-76
2023/10/31 09:21:33;;;;;;;3.72;2.17;;;9.30;99.90;;;;;;4973206;28;20205;-75
2023/10/31 09:24:00;;;;;;;2.30;2.20;;;9.30;99.90;;;;;;4977202;28;20290;-76
2023/10/31 09:26:27;;;;;;;2.15;2.05;;;9.30;99.90;;;;;;4973395;28;20299;-76
2023/10/31 09:28:56;;;;;;;1.90;1.80;;;9.30;99.90;;;;;;4959880;28;20209;-75
2023/10/31 09:31:23;;;;;;;2.00;1.90;;;9.30;99.90;;;;;;4958326;28;20296;-76
2023/10/31 09:33:52;;;;;;;1.90;1.80;;;9.30;99.90;;;;;;4973205;28;20651;-76
2023/10/31 09:36:21;;;;;;;1.50;1.50;;;9.30;99.90;;;;;;4974421;28;20201;-76
2023/10/31 09:38:48;;;;;;;1.73;1.73;;;9.30;99.90;;;;;;4972443;28;20679;-75
2023/10/31 09:41:15;;;;;;;2.47;2.28;;;9.40;99.90;;;;;;4972595;28;20692;-75
2023/10/31 09:43:42;;;;;;;3.03;2.72;;;9.40;99.90;;;;;;4974164;28;20216;-76
2023/10/31 09:46:11;;;;;;;2.85;2.65;;;9.50;99.90;;;;;;4978272;28;20217;-76
2023/10/31 09:48:39;;;;;;;2.55;2.35;;;9.50;99.90;;;;;;4971470;28;20215;-76
2023/10/31 09:51:09;;;;;;;2.40;2.20;;;9.60;99.90;;;;;;4978174;28;20303;-75
2023/10/31 09:53:39;;;;;;;2.53;2.33;;;9.60;99.90;;;;;;4974946;28;20234;-76
2023/10/31 09:56:08;;;;;;;1.90;1.80;;;9.60;99.90;;;;;;4973795;28;20212;-77
2023/10/31 09:58:36;;;;;;;1.70;1.60;;;9.60;99.90;;;;;;4970233;28;20213;-77
2023/10/31 10:01:04;;;;;;;1.45;1.40;;;9.70;99.90;;;;;;4974291;28;20213;-77
2023/10/31 10:03:31;;;;;;;1.73;1.63;;;9.70;99.90;;;;;;4974426;28;20233;-77
2023/10/31 10:05:59;;;;;;;1.60;1.60;;;9.80;99.90;;;;;;4959972;28;20232;-77
2023/10/31 10:08:27;;;;;;;1.40;1.40;;;9.90;99.90;;;;;;4975440;28;20229;-76
2023/10/31 10:10:56;;;;;;;1.30;1.30;;;9.90;99.90;;;;;;4973852;28;20201;-77
2023/10/31 10:13:23;;;;;;;1.42;1.42;;;9.90;99.90;;;;;;4972219;28;20709;-77
2023/10/31 10:15:53;;;;;;;1.40;1.40;;;9.80;99.90;;;;;;4977192;28;20701;-77
2023/10/31 10:18:27;;;;;;;1.40;1.40;;;9.80;99.90;;;;;;4979025;28;20570;-78
2023/10/31 10:20:59;;;;;;;1.20;1.20;;;9.70;99.90;;;;;;4975734;28;20255;-76
2023/10/31 10:23:30;;;;;;;1.63;1.52;;;9.70;99.90;;;;;;4976162;28;20224;-77
2023/10/31 10:25:59;;;;;;;1.70;1.60;;;9.70;99.90;;;;;;4980881;28;20279;-78
2023/10/31 10:28:29;;;;;;;1.60;1.50;;;9.60;99.90;;;;;;4980728;28;20197;-79
2023/10/31 10:30:56;;;;;;;1.38;1.33;;;9.60;99.90;;;;;;4978490;28;20306;-78
2023/10/31 10:33:23;;;;;;;1.05;1.05;;;9.60;99.90;;;;;;4979888;28;20233;-77
2023/10/31 10:35:51;;;;;;;1.40;1.40;;;9.60;99.90;;;;;;4975341;28;20733;-78
2023/10/31 10:38:19;;;;;;;1.83;1.70;;;9.60;99.90;;;;;;4977335;28;20213;-76
2023/10/31 10:40:55;;;;;;;1.42;1.30;;;9.70;99.90;;;;;;4984796;28;20762;-78
2023/10/31 10:43:25;;;;;;;1.70;1.60;;;9.70;99.90;;;;;;4985498;28;20220;-80
2023/10/31 10:45:56;;;;;;;1.80;1.70;;;9.70;99.90;;;;;;4986854;28;20225;-78
2023/10/31 10:48:25;;;;;;;1.75;1.65;;;9.80;99.90;;;;;;4983035;28;20197;-79
2023/10/31 10:50:58;;;;;;;2.00;1.90;;;9.80;99.90;;;;;;4983327;28;20243;-78
2023/10/31 10:53:30;;;;;;;1.95;1.75;;;9.90;99.90;;;;;;4983703;28;20247;-78
2023/10/31 10:56:04;;;;;;;1.80;1.70;;;9.90;99.90;;;;;;4982340;28;20210;-77
2023/10/31 10:58:38;;;;;;;1.85;1.75;;;9.90;99.90;;;;;;4982675;28;20665;-77
2023/10/31 11:01:07;;;;;;;1.60;1.50;;;10.00;99.90;;;;;;4981920;28;20267;-77
2023/10/31 11:03:35;;;;;;;1.50;1.50;;;10.00;99.90;;;;;;4980832;28;20228;-77
2023/10/31 11:06:04;;;;;;;1.23;1.23;;;10.10;99.90;;;;;;4987423;28;20217;-77
2023/10/31 11:08:33;;;;;;;1.45;1.45;;;10.20;99.90;;;;;;4981354;28;20212;-76
2023/10/31 11:11:02;;;;;;;1.40;1.30;;;10.20;99.90;;;;;;4981562;28;20285;-78
2023/10/31 11:13:29;;;;;;;1.48;1.48;;;10.20;99.90;;;;;;4978103;28;20220;-78
2023/10/31 11:16:03;;;;;;;1.45;1.42;;;10.20;99.90;;;;;;4981034;28;20327;-79
2023/10/31 11:18:30;;;;;;;1.40;1.40;;;10.30;99.90;;;;;;4982174;28;20200;-79
2023/10/31 11:20:58;;;;;;;1.27;1.27;;;10.40;99.90;;;;;;4978664;28;20204;-79
2023/10/31 11:23:27;;;;;;;1.30;1.30;;;10.40;99.90;;;;;;5049577;23;20257;-82
2023/10/31 11:25:58;;;;;;;1.23;1.23;;;10.40;99.90;;;;;;5034886;28;20230;-82
2023/10/31 11:28:42;;;;;;;1.10;1.10;;;10.50;99.90;;;;;;5029949;28;20321;-82
2023/10/31 11:31:10;;;;;;;1.35;1.35;;;10.50;99.90;;;;;;5027922;28;20227;-81
2023/10/31 11:33:42;;;;;;;1.27;1.27;;;10.50;99.90;;;;;;5022869;28;20204;-82
2023/10/31 11:36:12;;;;;;;1.55;1.45;;;10.50;99.90;;;;;;5023400;28;20208;-80
2023/10/31 11:38:39;;;;;;;1.77;1.67;;;10.40;99.90;;;;;;5020329;28;20214;-82
2023/10/31 11:41:08;;;;;;;1.80;1.70;;;10.30;99.90;;;;;;5014092;28;20324;-80
2023/10/31 11:43:53;;;;;;;3.20;2.90;;;10.20;99.90;;;;;;5015652;28;20212;-81
2023/10/31 11:46:22;;;;;;;2.15;2.05;;;10.10;99.90;;;;;;5016089;28;20314;-81
2023/10/31 11:48:51;;;;;;;3.13;2.88;;;10.10;99.90;;;;;;5015470;28;20254;-82
2023/10/31 11:51:18;;;;;;;3.28;2.97;;;10.10;99.90;;;;;;5020665;28;20223;-81
2023/10/31 11:53:45;;;;;;;2.72;2.50;;;10.10;99.90;;;;;;5029176;28;20227;-82
2023/10/31 11:56:13;;;;;;;20.73;16.55;;;10.10;99.90;;;;;;5020125;28;20811;-81
2023/10/31 11:58:40;;;;;;;26.83;19.70;;;10.10;99.90;;;;;;5019640;28;20208;-81
2023/10/31 12:01:15;;;;;;;24.30;16.80;;;10.10;99.90;;;;;;5016634;28;20750;-82
2023/10/31 12:03:47;;;;;;;20.63;14.13;;;10.20;99.90;;;;;;5013699;28;20254;-79
2023/10/31 12:06:15;;;;;;;27.20;17.30;;;10.10;99.90;;;;;;5015886;28;20298;-81
2023/10/31 12:08:43;;;;;;;20.67;12.93;;;10.10;99.90;;;;;;5022010;28;20299;-81
2023/10/31 12:11:12;;;;;;;8.80;6.35;;;10.10;99.90;;;;;;5020090;28;20760;-81
2023/10/31 12:13:40;;;;;;;6.20;5.05;;;10.10;99.90;;;;;;5021792;28;20265;-81
2023/10/31 12:16:10;;;;;;;3.95;3.60;;;10.00;99.90;;;;;;5012064;28;20243;-82
2023/10/31 12:18:38;;;;;;;88.13;44.92;;;10.00;99.90;;;;;;5015920;28;20204;-80
2023/10/31 12:21:07;;;;;;;145.10;80.47;;;10.00;99.90;;;;;;5014762;28;20228;-81
2023/10/31 12:23:34;;;;;;;72.40;43.80;;;10.10;99.90;;;;;;5020259;28;20207;-81
2023/10/31 12:26:10;;;;;;;51.63;32.97;;;10.20;99.90;;;;;;5015571;28;20192;-81
2023/10/31 12:29:08;;;;;;;32.83;22.33;;;10.30;99.90;;;;;;5017936;28;20196;-80
2023/10/31 12:31:39;;;;;;;37.95;24.10;;;10.40;99.90;;;;;;5016396;28;20238;-81
2023/10/31 12:34:06;;;;;;;23.88;16.75;;;10.40;99.90;;;;;;5015727;28;20711;-81
2023/10/31 12:36:36;;;;;;;17.38;12.85;;;10.50;99.90;;;;;;5013639;28;21304;-81
2023/10/31 12:39:04;;;;;;;11.02;8.57;;;10.60;99.90;;;;;;5012249;28;20211;-80
2023/10/31 12:41:34;;;;;;;10.02;7.57;;;10.80;99.90;;;;;;5016269;28;20287;-81
2023/10/31 12:44:02;;;;;;;8.88;5.88;;;10.80;99.90;;;;;;5012610;28;20478;-81
2023/10/31 12:46:30;;;;;;;4.75;4.25;;;11.00;99.90;;;;;;5015338;28;20750;-81
2023/10/31 12:48:59;;;;;;;3.13;2.83;;;11.30;99.90;;;;;;5012837;28;20208;-79
2023/10/31 12:51:26;;;;;;;2.42;2.22;;;11.40;99.90;;;;;;5010659;28;20223;-80